createdAt,value
2022-11-22T00:01:22.513Z,-1.94
2022-11-22T00:03:51.736Z,-1.91
2022-11-22T00:06:19.647Z,-1.85
2022-11-22T00:08:48.384Z,-1.97
2022-11-22T00:11:17.378Z,-1.97
2022-11-22T00:13:45.482Z,-1.86
2022-11-22T00:16:13.281Z,-1.91
2022-11-22T00:18:41.193Z,-1.85
2022-11-22T00:21:10.514Z,-1.92
2022-11-22T00:23:38.385Z,-2.05
2022-11-22T00:26:07.136Z,-2.00
2022-11-22T00:28:35.025Z,-1.94
2022-11-22T00:31:03.031Z,-1.98
2022-11-22T00:33:30.854Z,-1.96
2022-11-22T00:35:58.564Z,-1.99
2022-11-22T00:38:27.943Z,-1.99
2022-11-22T00:40:56.010Z,-1.94
2022-11-22T00:43:23.870Z,-2.15
2022-11-22T00:45:51.671Z,-2.06
2022-11-22T00:48:19.506Z,-2.05
2022-11-22T00:50:49.830Z,-2.02
2022-11-22T00:53:17.791Z,-1.99
2022-11-22T00:55:47.625Z,-1.95
2022-11-22T00:58:15.606Z,-1.98
2022-11-22T01:00:43.723Z,-2.00
2022-11-22T01:03:12.643Z,-1.88
2022-11-22T01:05:41.131Z,-1.84
2022-11-22T01:08:09.763Z,-2.02
2022-11-22T01:10:37.982Z,-1.88
2022-11-22T01:13:07.989Z,-1.89
2022-11-22T01:15:37.387Z,-1.89
2022-11-22T01:18:05.946Z,-1.84
2022-11-22T01:20:34.039Z,-1.88
2022-11-22T01:23:01.941Z,-1.79
2022-11-22T01:25:33.947Z,-1.81
2022-11-22T01:28:02.886Z,-1.80
2022-11-22T01:30:40.055Z,-1.80
2022-11-22T01:33:12.117Z,-1.87
2022-11-22T01:35:43.932Z,-1.85
2022-11-22T01:38:12.099Z,-1.91
2022-11-22T01:40:40.122Z,-1.85
2022-11-22T01:43:17.535Z,-1.95
2022-11-22T01:45:52.503Z,-1.81
2022-11-22T01:52:32.148Z,-2.01
2022-11-22T01:59:03.194Z,-1.81
2022-11-22T02:01:34.818Z,-1.77
2022-11-22T02:12:40.842Z,-1.71
2022-11-22T02:15:10.033Z,-1.59
2022-11-22T02:17:39.536Z,-1.59
2022-11-22T02:20:08.862Z,-1.63
2022-11-22T02:22:45.716Z,-1.65
2022-11-22T02:25:19.910Z,-1.53
2022-11-22T02:27:50.618Z,-1.58
2022-11-22T02:30:20.027Z,-1.53
2022-11-22T02:32:48.101Z,-1.56
2022-11-22T02:35:21.121Z,-1.55
2022-11-22T02:37:51.406Z,-1.75
2022-11-22T02:40:20.654Z,-1.65
2022-11-22T02:42:56.862Z,-1.63
2022-11-22T02:45:24.634Z,-1.73
2022-11-22T02:47:52.723Z,-1.74
2022-11-22T02:50:29.178Z,-1.78
2022-11-22T02:52:57.026Z,-1.87
2022-11-22T02:55:24.905Z,-1.79
2022-11-22T02:57:54.094Z,-1.84
2022-11-22T03:00:22.405Z,-1.82
2022-11-22T03:02:50.449Z,-1.72
2022-11-22T03:05:19.227Z,-1.78
2022-11-22T03:07:47.145Z,-1.75
2022-11-22T03:10:16.086Z,-1.75
2022-11-22T03:12:44.236Z,-1.74
2022-11-22T03:15:13.680Z,-1.71
2022-11-22T03:17:41.711Z,-1.64
2022-11-22T03:20:10.520Z,-1.71
2022-11-22T03:22:38.435Z,-1.67
2022-11-22T03:25:07.347Z,-1.69
2022-11-22T03:27:35.178Z,-1.66
2022-11-22T03:30:03.116Z,-1.78
2022-11-22T03:32:32.521Z,-1.69
2022-11-22T03:35:01.583Z,-1.80
2022-11-22T03:37:42.027Z,-1.84
2022-11-22T03:40:10.833Z,-1.86
2022-11-22T03:42:38.676Z,-1.84
2022-11-22T03:45:07.674Z,-1.83
2022-11-22T03:47:36.969Z,-1.83
2022-11-22T03:50:05.703Z,-1.80
2022-11-22T03:52:33.588Z,-1.76
2022-11-22T03:55:01.505Z,-1.67
2022-11-22T03:57:29.539Z,-1.69
2022-11-22T03:59:57.349Z,-1.64
2022-11-22T04:02:25.368Z,-1.63
2022-11-22T04:04:54.963Z,-1.64
2022-11-22T04:07:23.207Z,-1.58
2022-11-22T04:09:51.086Z,-1.68
2022-11-22T04:12:19.096Z,-1.72
2022-11-22T04:15:04.327Z,-1.66
2022-11-22T04:17:41.667Z,-1.77
2022-11-22T04:20:32.192Z,-1.60
2022-11-22T04:23:03.294Z,-1.62
2022-11-22T04:25:31.933Z,-1.52
2022-11-22T04:28:00.427Z,-1.50
2022-11-22T04:30:43.205Z,-1.65
2022-11-22T04:33:11.070Z,-1.66
2022-11-22T04:35:42.256Z,-1.72
2022-11-22T04:38:10.798Z,-1.59
2022-11-22T04:40:42.037Z,-1.67
2022-11-22T04:43:33.652Z,-1.57
2022-11-22T04:46:14.831Z,-1.60
2022-11-22T04:48:42.961Z,-1.51
2022-11-22T04:51:33.445Z,-1.60
2022-11-22T04:54:01.793Z,-1.51
2022-11-22T04:56:29.762Z,-1.54
2022-11-22T04:58:57.689Z,-1.56
2022-11-22T05:01:25.700Z,-1.59
2022-11-22T05:03:53.470Z,-1.64
2022-11-22T05:06:22.782Z,-1.51
2022-11-22T05:09:12.451Z,-1.44
2022-11-22T05:11:40.398Z,-1.53
2022-11-22T05:14:11.052Z,-1.46
2022-11-22T05:16:38.906Z,-1.42
2022-11-22T05:19:06.862Z,-1.45
2022-11-22T05:21:37.518Z,-1.33
2022-11-22T05:24:05.128Z,-1.34
2022-11-22T05:26:34.887Z,-1.29
2022-11-22T05:29:06.183Z,-1.35
2022-11-22T05:31:35.125Z,-1.35
2022-11-22T05:34:03.009Z,-1.43
2022-11-22T05:36:33.087Z,-1.30
2022-11-22T05:39:02.487Z,-1.36
2022-11-22T05:41:30.372Z,-1.22
2022-11-22T05:43:58.538Z,-1.19
2022-11-22T05:46:28.238Z,-1.14
2022-11-22T05:48:57.539Z,-1.24
2022-11-22T05:51:34.153Z,-1.18
2022-11-22T05:54:05.797Z,-1.13
2022-11-22T05:56:33.716Z,-1.01
2022-11-22T05:59:01.624Z,-1.19
2022-11-22T06:01:29.674Z,-1.18
2022-11-22T06:03:57.581Z,-1.13
2022-11-22T06:06:25.404Z,-1.17
2022-11-22T06:08:53.333Z,-1.27
2022-11-22T06:11:24.523Z,-1.14
2022-11-22T06:13:54.447Z,-1.18
2022-11-22T06:16:23.219Z,-1.01
2022-11-22T06:18:51.465Z,-1.04
2022-11-22T06:21:23.216Z,-1.08
2022-11-22T06:23:51.486Z,-1.11
2022-11-22T06:26:21.248Z,-1.01
2022-11-22T06:28:50.541Z,-1.04
2022-11-22T06:31:20.450Z,-1.13
2022-11-22T06:33:48.620Z,-0.99
2022-11-22T06:36:18.549Z,-0.97
2022-11-22T06:38:47.488Z,-0.99
2022-11-22T06:41:17.484Z,-0.98
2022-11-22T06:43:49.379Z,-1.07
2022-11-22T06:46:20.495Z,-0.86
2022-11-22T06:48:48.994Z,-0.92
2022-11-22T06:51:19.260Z,-0.89
2022-11-22T06:53:49.407Z,-0.91
2022-11-22T06:56:19.728Z,-0.84
2022-11-22T06:58:48.628Z,-0.83
2022-11-22T07:01:19.995Z,-0.80
2022-11-22T07:03:48.643Z,-0.87
2022-11-22T07:06:18.823Z,-0.81
2022-11-22T07:08:47.773Z,-0.85
2022-11-22T07:11:17.389Z,-0.74
2022-11-22T07:13:45.982Z,-0.78
2022-11-22T07:16:15.678Z,-0.79
2022-11-22T07:18:45.390Z,-0.82
2022-11-22T07:21:15.827Z,-0.78
2022-11-22T07:23:45.511Z,-0.71
2022-11-22T07:26:14.173Z,-0.89
2022-11-22T07:28:41.952Z,-0.75
2022-11-22T07:31:11.580Z,-0.71
2022-11-22T07:33:39.882Z,-0.67
2022-11-22T07:36:11.201Z,-0.67
2022-11-22T07:38:39.375Z,-0.61
2022-11-22T07:41:08.250Z,-0.66
2022-11-22T07:43:36.454Z,-0.68
2022-11-22T07:46:05.975Z,-0.55
2022-11-22T07:48:34.090Z,-0.49
2022-11-22T07:51:05.829Z,-0.51
2022-11-22T07:53:36.109Z,-0.53
2022-11-22T07:56:04.226Z,-0.39
2022-11-22T07:58:32.473Z,-0.27
2022-11-22T08:01:06.262Z,-0.11
2022-11-22T08:03:34.287Z,-0.19
2022-11-22T08:06:02.697Z,-0.25
2022-11-22T08:08:30.785Z,-0.30
2022-11-22T08:11:12.947Z,-0.29
2022-11-22T08:13:41.271Z,-0.25
2022-11-22T08:16:12.202Z,-0.17
2022-11-22T08:18:41.317Z,-0.24
2022-11-22T08:21:10.996Z,-0.35
2022-11-22T08:23:40.052Z,-0.18
2022-11-22T08:26:12.340Z,-0.22
2022-11-22T08:28:42.570Z,-0.07
2022-11-22T08:31:12.417Z,-0.02
2022-11-22T08:33:40.990Z,-0.19
2022-11-22T08:36:09.749Z,-0.09
2022-11-22T08:38:37.938Z,-0.06
2022-11-22T08:41:08.221Z,-0.07
2022-11-22T08:43:36.235Z,-0.05
2022-11-22T08:46:05.697Z,-0.07
2022-11-22T08:48:35.787Z,0.02
2022-11-22T08:51:05.225Z,0.11
2022-11-22T08:53:34.354Z,0.08
2022-11-22T08:56:03.035Z,0.25
2022-11-22T08:58:31.666Z,0.14
2022-11-22T09:01:07.214Z,0.14
2022-11-22T09:03:36.198Z,0.25
2022-11-22T09:09:08.437Z,0.22
2022-11-22T09:11:41.676Z,0.28
2022-11-22T09:14:09.650Z,0.24
2022-11-22T09:16:39.080Z,0.27
2022-11-22T09:19:07.097Z,0.22
2022-11-22T09:21:34.994Z,0.36
2022-11-22T09:24:02.753Z,0.34
2022-11-22T09:26:30.775Z,0.39
2022-11-22T09:28:58.665Z,0.42
2022-11-22T09:31:26.816Z,0.49
2022-11-22T09:33:56.525Z,0.46
2022-11-22T09:36:27.083Z,0.61
2022-11-22T09:38:56.169Z,0.56
2022-11-22T09:41:41.353Z,0.45
2022-11-22T09:44:18.992Z,0.61
2022-11-22T09:46:52.719Z,0.67
2022-11-22T09:49:39.193Z,0.68
2022-11-22T09:52:11.746Z,0.66
2022-11-22T09:54:45.998Z,0.82
2022-11-22T09:57:20.543Z,0.73
2022-11-22T10:00:03.343Z,0.56
2022-11-22T10:02:58.956Z,0.76
2022-11-22T10:05:31.300Z,0.68
2022-11-22T10:08:05.405Z,0.79
2022-11-22T10:10:39.853Z,0.79
2022-11-22T10:13:15.123Z,0.96
2022-11-22T10:15:50.586Z,0.76
2022-11-22T10:18:24.815Z,0.84
2022-11-22T10:20:54.515Z,0.93
2022-11-22T10:23:24.355Z,0.77
2022-11-22T10:25:58.740Z,0.86
2022-11-22T10:28:35.509Z,0.95
2022-11-22T10:31:10.351Z,0.88
2022-11-22T10:33:45.734Z,0.92
2022-11-22T10:36:28.087Z,1.08
2022-11-22T10:39:09.069Z,1.08
2022-11-22T10:41:55.869Z,1.18
2022-11-22T10:44:36.773Z,1.21
2022-11-22T10:47:16.224Z,1.19
2022-11-22T10:49:58.534Z,1.35
2022-11-22T10:52:39.519Z,1.36
2022-11-22T10:55:22.339Z,1.43
2022-11-22T10:58:02.221Z,1.21
2022-11-22T11:00:33.329Z,1.40
2022-11-22T11:03:17.867Z,1.26
2022-11-22T11:06:21.251Z,1.21
2022-11-22T11:09:23.299Z,1.36
2022-11-22T11:11:31.709Z,1.37
2022-11-22T11:14:03.350Z,1.43
2022-11-22T11:16:34.943Z,1.57
2022-11-22T11:19:15.244Z,1.68
2022-11-22T11:21:43.114Z,1.40
2022-11-22T11:24:15.601Z,1.46
2022-11-22T11:26:45.339Z,1.64
2022-11-22T11:29:37.710Z,1.58
2022-11-22T11:32:10.395Z,1.77
2022-11-22T11:34:43.701Z,1.78
2022-11-22T11:37:23.333Z,1.72
2022-11-22T11:39:52.969Z,1.77
2022-11-22T11:42:29.816Z,1.91
2022-11-22T11:45:28.123Z,1.83
2022-11-22T11:47:56.507Z,1.83
2022-11-22T11:50:26.625Z,1.81
2022-11-22T11:52:56.973Z,1.81
2022-11-22T11:55:26.511Z,1.94
2022-11-22T11:57:55.328Z,1.91
2022-11-22T12:00:28.397Z,2.03
2022-11-22T12:03:00.746Z,2.06
2022-11-22T12:05:31.308Z,1.93
2022-11-22T12:07:59.878Z,2.12
2022-11-22T12:10:35.833Z,2.12
2022-11-22T12:13:11.731Z,2.06
2022-11-22T12:15:51.360Z,2.10
2022-11-22T12:18:34.367Z,2.15
2022-11-22T12:21:15.248Z,2.09
2022-11-22T12:23:51.836Z,2.07
2022-11-22T12:26:21.679Z,2.14
2022-11-22T12:28:50.824Z,2.24
2022-11-22T12:31:30.906Z,2.19
2022-11-22T12:34:02.103Z,2.03
2022-11-22T12:36:34.902Z,1.98
2022-11-22T12:39:05.210Z,1.81
2022-11-22T12:41:36.429Z,1.78
2022-11-22T12:44:08.167Z,1.79
2022-11-22T12:46:41.282Z,1.75
2022-11-22T12:49:16.591Z,1.77
2022-11-22T12:51:48.620Z,1.90
2022-11-22T12:54:23.639Z,1.89
2022-11-22T12:57:03.657Z,1.92
2022-11-22T12:59:38.420Z,1.89
2022-11-22T13:02:16.773Z,1.86
2022-11-22T13:04:52.638Z,1.94
2022-11-22T13:07:27.372Z,1.86
2022-11-22T13:10:03.356Z,1.79
2022-11-22T13:12:37.253Z,1.81
2022-11-22T13:15:06.716Z,1.84
2022-11-22T13:17:36.441Z,1.82
2022-11-22T13:20:07.965Z,1.84
2022-11-22T13:22:49.683Z,1.83
2022-11-22T13:25:37.274Z,1.88
2022-11-22T13:28:18.471Z,1.92
2022-11-22T13:31:08.414Z,2.00
2022-11-22T13:33:38.576Z,2.02
2022-11-22T13:36:26.171Z,1.93
2022-11-22T13:38:55.928Z,1.98
2022-11-22T13:41:27.924Z,1.96
2022-11-22T13:43:59.440Z,1.98
2022-11-22T13:46:54.318Z,1.98
2022-11-22T13:49:49.133Z,1.98
2022-11-22T13:53:01.540Z,2.05
2022-11-22T13:55:41.857Z,2.06
2022-11-22T13:58:52.544Z,1.93
2022-11-22T14:01:56.147Z,1.91
2022-11-22T14:04:39.133Z,1.89
2022-11-22T14:07:22.380Z,1.89
2022-11-22T14:09:58.850Z,1.91
2022-11-22T14:12:36.768Z,1.96
2022-11-22T14:15:20.829Z,1.98
2022-11-22T14:18:00.685Z,1.98
2022-11-22T14:20:41.879Z,1.94
2022-11-22T14:23:20.791Z,1.91
2022-11-22T14:25:59.824Z,1.85
2022-11-22T14:28:50.307Z,1.83
2022-11-22T14:31:23.312Z,1.87
2022-11-22T14:34:24.347Z,1.92
2022-11-22T14:37:28.629Z,1.98
2022-11-22T14:40:13.926Z,1.96
2022-11-22T14:43:03.292Z,1.97
2022-11-22T14:45:44.979Z,1.92
2022-11-22T14:48:20.205Z,1.94
2022-11-22T14:50:56.278Z,1.95
2022-11-22T14:53:37.045Z,1.94
2022-11-22T14:56:09.041Z,1.94
2022-11-22T14:58:41.387Z,1.99
2022-11-22T15:01:27.143Z,1.99
2022-11-22T15:09:11.677Z,2.02
2022-11-22T15:09:19.186Z,2.07
2022-11-22T15:10:44.632Z,2.12
2022-11-22T15:13:47.692Z,2.05
2022-11-22T15:57:29.324Z,2.06
2022-11-22T15:59:57.350Z,2.10
2022-11-22T16:02:27.612Z,2.15
2022-11-22T16:06:07.267Z,2.11
2022-11-22T16:07:49.343Z,2.15
2022-11-22T16:10:22.378Z,2.19
2022-11-22T16:12:51.089Z,2.29
2022-11-22T16:15:36.150Z,2.26
2022-11-22T16:18:15.728Z,2.10
2022-11-22T16:20:59.157Z,2.12
2022-11-22T16:23:29.194Z,2.02
2022-11-22T16:26:01.571Z,1.99
2022-11-22T16:28:33.027Z,2.09
2022-11-22T16:31:04.510Z,2.05
2022-11-22T16:33:33.367Z,2.05
2022-11-22T16:36:02.714Z,2.09
2022-11-22T16:38:31.213Z,1.99
2022-11-22T16:41:00.762Z,2.02
2022-11-22T16:43:35.388Z,2.00
2022-11-22T16:46:03.898Z,1.99
2022-11-22T16:48:33.229Z,2.00
2022-11-22T16:51:04.894Z,1.99
2022-11-22T16:53:41.088Z,2.10
2022-11-22T16:56:17.858Z,2.06
2022-11-22T16:58:46.076Z,2.13
2022-11-22T17:01:16.097Z,2.07
2022-11-22T17:03:45.020Z,2.08
2022-11-22T17:06:18.731Z,2.12
2022-11-22T17:08:47.803Z,2.13
2022-11-22T17:11:19.387Z,2.17
2022-11-22T17:13:48.630Z,2.24
2022-11-22T17:16:18.654Z,2.24
2022-11-22T17:18:47.747Z,2.16
2022-11-22T17:21:19.033Z,2.16
2022-11-22T17:23:47.002Z,2.10
2022-11-22T17:26:15.071Z,2.17
2022-11-22T17:28:44.337Z,2.18
2022-11-22T17:31:14.511Z,2.19
2022-11-22T17:33:42.643Z,2.20
2022-11-22T17:36:21.066Z,2.24
2022-11-22T17:38:49.410Z,2.23
2022-11-22T17:41:17.405Z,2.19
2022-11-22T17:43:47.172Z,2.21
2022-11-22T17:46:15.178Z,2.29
2022-11-22T17:48:43.228Z,2.23
2022-11-22T17:51:13.265Z,2.20
2022-11-22T17:53:41.373Z,2.13
2022-11-22T17:56:11.544Z,2.08
2022-11-22T17:58:39.798Z,2.18
2022-11-22T18:01:11.956Z,2.11
2022-11-22T18:03:39.989Z,2.18
2022-11-22T18:06:09.450Z,2.22
2022-11-22T18:08:39.550Z,2.23
2022-11-22T18:11:10.999Z,2.19
2022-11-22T18:13:42.718Z,2.20
2022-11-22T18:16:15.926Z,2.13
2022-11-22T18:19:00.057Z,2.12
2022-11-22T18:21:30.216Z,2.17
2022-11-22T18:23:58.769Z,2.21
2022-11-22T18:26:43.136Z,2.19
2022-11-22T18:32:03.272Z,2.18
2022-11-22T18:34:34.013Z,2.30
2022-11-22T18:37:03.765Z,2.20
2022-11-22T18:39:36.586Z,2.18
2022-11-22T18:42:06.251Z,2.19
2022-11-22T18:44:34.361Z,2.15
2022-11-22T18:47:03.680Z,2.20
2022-11-22T18:49:32.296Z,2.23
2022-11-22T18:52:00.931Z,2.28
2022-11-22T18:54:29.160Z,2.29
2022-11-22T18:56:57.446Z,2.34
2022-11-22T18:59:53.179Z,2.33
2022-11-22T19:02:26.254Z,2.23
2022-11-22T19:04:55.103Z,2.13
2022-11-22T19:07:23.242Z,2.11
2022-11-22T19:09:51.400Z,2.21
2022-11-22T19:12:19.540Z,2.20
2022-11-22T19:14:47.493Z,2.22
2022-11-22T19:17:19.973Z,2.16
2022-11-22T19:19:57.260Z,2.28
2022-11-22T19:22:25.632Z,2.13
2022-11-22T19:24:53.605Z,2.22
2022-11-22T19:27:22.255Z,2.24
2022-11-22T19:29:50.423Z,2.23
2022-11-22T19:32:18.776Z,2.27
2022-11-22T19:34:46.972Z,2.23
2022-11-22T19:37:16.564Z,2.13
2022-11-22T19:39:44.466Z,2.04
2022-11-22T19:42:13.126Z,2.16
2022-11-22T19:44:41.018Z,2.12
2022-11-22T19:47:11.914Z,2.15
2022-11-22T19:49:39.846Z,2.15
2022-11-22T19:52:07.831Z,2.12
2022-11-22T19:54:37.369Z,2.23
2022-11-22T19:57:08.189Z,2.29
2022-11-22T19:59:37.053Z,2.21
2022-11-22T20:02:05.481Z,2.37
2022-11-22T20:04:33.427Z,2.39
2022-11-22T20:07:02.361Z,2.43
2022-11-22T20:09:30.812Z,2.44
2022-11-22T20:12:00.457Z,2.47
2022-11-22T20:14:28.780Z,2.42
2022-11-22T20:16:56.881Z,2.32
2022-11-22T20:19:27.564Z,2.22
2022-11-22T20:21:57.684Z,2.25
2022-11-22T20:24:25.958Z,2.16
2022-11-22T20:26:54.176Z,2.21
2022-11-22T20:29:25.137Z,2.25
2022-11-22T20:31:53.528Z,2.33
2022-11-22T20:34:21.994Z,2.35
2022-11-22T20:36:50.186Z,2.38
2022-11-22T20:39:18.300Z,2.33
2022-11-22T20:41:46.170Z,2.33
2022-11-22T20:44:15.227Z,2.21
2022-11-22T20:46:45.284Z,2.35
2022-11-22T20:49:13.557Z,2.39
2022-11-22T20:51:43.506Z,2.38
2022-11-22T20:54:12.032Z,2.41
2022-11-22T20:56:40.103Z,2.37
2022-11-22T20:59:08.395Z,2.18
2022-11-22T21:01:36.525Z,2.33
2022-11-22T21:04:06.124Z,2.35
2022-11-22T21:06:36.656Z,2.19
2022-11-22T21:09:04.938Z,2.31
2022-11-22T21:11:33.109Z,2.22
2022-11-22T21:14:01.130Z,2.22
2022-11-22T21:16:32.576Z,2.22
2022-11-22T21:19:02.017Z,2.20
2022-11-22T21:21:32.363Z,2.12
2022-11-22T21:24:02.323Z,2.11
2022-11-22T21:26:31.385Z,2.12
2022-11-22T21:29:00.398Z,2.13
2022-11-22T21:31:29.165Z,2.12
2022-11-22T21:33:57.315Z,2.21
2022-11-22T21:36:25.110Z,2.24
2022-11-22T21:38:54.867Z,2.21
2022-11-22T21:41:40.259Z,2.13
2022-11-22T21:44:08.893Z,2.12
2022-11-22T21:46:36.885Z,2.12
2022-11-22T21:49:05.043Z,2.13
2022-11-22T21:51:33.120Z,2.11
2022-11-22T21:54:03.199Z,2.16
2022-11-22T21:56:31.599Z,2.17
2022-11-22T21:58:59.973Z,2.00
2022-11-22T22:01:28.110Z,1.88
2022-11-22T22:03:56.041Z,1.85
2022-11-22T22:06:25.249Z,1.81
2022-11-22T22:08:53.187Z,1.81
2022-11-22T22:11:23.240Z,1.78
2022-11-22T22:13:54.167Z,1.76
2022-11-22T22:16:24.259Z,1.75
2022-11-22T22:18:52.565Z,1.67
2022-11-22T22:21:21.526Z,1.67
2022-11-22T22:23:49.585Z,1.70
2022-11-22T22:26:19.823Z,1.73
2022-11-22T22:28:49.004Z,1.67
2022-11-22T22:31:21.913Z,1.67
2022-11-22T22:33:51.806Z,1.72
2022-11-22T22:36:20.020Z,1.65
2022-11-22T22:38:48.225Z,1.54
2022-11-22T22:41:16.429Z,1.61
2022-11-22T22:43:47.388Z,1.58
2022-11-22T22:46:18.711Z,1.56
2022-11-22T22:48:47.445Z,1.54
2022-11-22T22:51:17.659Z,1.46
2022-11-22T22:53:46.214Z,1.47
2022-11-22T22:56:15.316Z,1.42
2022-11-22T22:58:43.838Z,1.41
2022-11-22T23:01:17.447Z,1.37
2022-11-22T23:03:48.969Z,1.35
2022-11-22T23:06:17.293Z,1.36
2022-11-22T23:08:47.697Z,1.27
2022-11-22T23:11:17.023Z,1.26
2022-11-22T23:13:45.913Z,1.38
2022-11-22T23:16:16.863Z,1.35
2022-11-22T23:18:46.258Z,1.33
2022-11-22T23:21:15.929Z,1.31
2022-11-22T23:23:43.940Z,1.28
2022-11-22T23:26:13.676Z,1.22
2022-11-22T23:28:42.097Z,1.24
2022-11-22T23:31:11.437Z,1.25
2022-11-22T23:33:41.185Z,1.19
2022-11-22T23:36:11.290Z,1.28
2022-11-22T23:38:39.468Z,1.31
2022-11-22T23:41:08.018Z,1.36
2022-11-22T23:43:35.867Z,1.33
2022-11-22T23:46:03.771Z,1.21
2022-11-22T23:48:31.830Z,1.20
2022-11-22T23:51:04.991Z,1.20
2022-11-22T23:53:32.891Z,1.17
2022-11-22T23:56:06.404Z,1.30
2022-11-22T23:58:34.563Z,1.21
